Radiance Of The Seas — C6SE7 — position and weather

sailwx.info

Track history (hours):
 
Tides and Currents Weather Stations Pressure Air Temp Water Temp Dewpoint Dewpoint Depression Visibility Wind Speed Wind Dir Waves Ship Positions

Radiance Of The Seas

Operator: Royal Caribbean Cruises Ltd

Last reported at 2015-May-21 06:25 UTC. Time now 2015-May-26 05:24 UTC.
Position N 58°20' W 136°07'.

Type: Passenger vessel. MMSI: 311319000.

Date/timePositionNaut miles runAvg speedWind from/ knotsBaromVisibWave heightAir tempDewpointWater temp
2015-May-21 06:25N 58°20' W 136°07'1820.6
2015-May-21 05:33N 58°16' W 135°34'8 0.2
2015-May-19 02:30N 58°09' W 135°27'  
2015-May-16 18:00N 51°18' W 129°00'4412.4 350 / 291014.010.8 10.0 12.0
2015-May-16 14:27N 51°01' W 127°55'1011.6
2015-May-16 13:33N 50°56' W 127°41'1212.4
2015-May-16 12:33N 50°49' W 127°25'1313.0
2015-May-16 11:33N 50°44' W 127°06'1312.9
2015-May-16 10:33N 50°38' W 126°48'12015.0
2015-May-16 02:33N 49°26' W 124°19'2722.1
2015-May-16 01:20N 49°20' W 123°39'1620.7
2015-May-16 00:33N 49°19' W 123°14'5 5.2
2015-May-15 23:31N 49°17' W 123°06'0 0.0
2015-May-15 22:31N 49°17' W 123°06'0 0.0
2015-May-15 21:31N 49°17' W 123°06'0 0.0
2015-May-15 20:31N 49°17' W 123°06'0 0.0
2015-May-15 19:31N 49°17' W 123°06'0 0.0
2015-May-15 18:31N 49°17' W 123°06'0 0.0
2015-May-15 17:31N 49°17' W 123°06'0 0.0
2015-May-15 16:31N 49°17' W 123°06'0 0.0
2015-May-15 15:31N 49°17' W 123°06'0 0.0
2015-May-15 14:31N 49°17' W 123°06'1 1.0
2015-May-15 13:33N 49°18' W 123°07'1312.8
2015-May-15 12:33N 49°09' W 123°20'1717.1
2015-May-15 11:33N 48°54' W 123°06'1313.0
2015-May-15 10:33N 48°42' W 123°14'1817.9
2015-May-15 09:33N 48°25' W 123°10'1715.9
2015-May-15 08:31N 48°14' W 123°29'7117.4
2015-May-15 04:27N 48°28' W 125°13'1517.1
2015-May-15 03:33N 48°21' W 125°33'24518.0
2015-May-14 14:00N 45°42' W 130°06'   030 / 151012.010.8 1.010.0 12.0
2015-May-11 23:00N 30°48' W 148°24'   070 / 201024.010.8 18.0 20.0
Track history (hours):
 
Tides and Currents Weather Stations Pressure Air Temp Water Temp Dewpoint Dewpoint Depression Visibility Wind Speed Wind Dir Waves Ship Positions

Radiance Of The Seas

Operator: Royal Caribbean Cruises Ltd

Last reported at 2015-May-21 06:25 UTC. Time now 2015-May-26 05:24 UTC.
Position N 58°20' W 136°07'.

Type: Passenger vessel. MMSI: 311319000.

Date/timePositionNaut miles runAvg speedWind from/ knotsBaromVisibWave heightAir tempDewpointWater temp
2015-May-21 06:25N 58°20' W 136°07'1820.6
2015-May-21 05:33N 58°16' W 135°34'8 0.2
2015-May-19 02:30N 58°09' W 135°27'  
2015-May-16 18:00N 51°18' W 129°00'4412.4 350 / 291014.010.8 10.0 12.0
2015-May-16 14:27N 51°01' W 127°55'1011.6
2015-May-16 13:33N 50°56' W 127°41'1212.4
2015-May-16 12:33N 50°49' W 127°25'1313.0
2015-May-16 11:33N 50°44' W 127°06'1312.9
2015-May-16 10:33N 50°38' W 126°48'12015.0
2015-May-16 02:33N 49°26' W 124°19'2722.1
2015-May-16 01:20N 49°20' W 123°39'1620.7
2015-May-16 00:33N 49°19' W 123°14'5 5.2
2015-May-15 23:31N 49°17' W 123°06'0 0.0
2015-May-15 22:31N 49°17' W 123°06'0 0.0
2015-May-15 21:31N 49°17' W 123°06'0 0.0
2015-May-15 20:31N 49°17' W 123°06'0 0.0
2015-May-15 19:31N 49°17' W 123°06'0 0.0
2015-May-15 18:31N 49°17' W 123°06'0 0.0
2015-May-15 17:31N 49°17' W 123°06'0 0.0
2015-May-15 16:31N 49°17' W 123°06'0 0.0
2015-May-15 15:31N 49°17' W 123°06'0 0.0
2015-May-15 14:31N 49°17' W 123°06'1 1.0
2015-May-15 13:33N 49°18' W 123°07'1312.8
2015-May-15 12:33N 49°09' W 123°20'1717.1
2015-May-15 11:33N 48°54' W 123°06'1313.0
2015-May-15 10:33N 48°42' W 123°14'1817.9
2015-May-15 09:33N 48°25' W 123°10'1715.9
2015-May-15 08:31N 48°14' W 123°29'7117.4
2015-May-15 04:27N 48°28' W 125°13'1517.1
2015-May-15 03:33N 48°21' W 125°33'24518.0
2015-May-14 14:00N 45°42' W 130°06'   030 / 151012.010.8 1.010.0 12.0
2015-May-11 23:00N 30°48' W 148°24'   070 / 201024.010.8 18.0 20.0

Dump ship's entire track history